Gonderange, Luxembourg
Current Conditions -  °F | °C
As of 12:50 PM on Wednesday 28 Jan 2015 (Local Time) from ELLX Reporting Station
Broken Clouds Broken Clouds  
Wind Chill: 28°   Ceiling: 1100
Heat Index: 37°   Visibility: 6mi
Dew Point: 37°   Wind: 17mph
Humidity: 100%   Direction: 210°SSW
Pressure: 29.85"   Gusts: NA
Location:  49.69°N, 6.25°E
Report Text: ELLX 281150Z 21015KT 180V240 9999 BKN011 03/03 Q1011 WS RWY 24 NOSIG
Loading
Personal Weather Stations






























Interactive Weather Map New forecast layout! Learn more

10-Day Weather Forecast

Advertisements
Track Severe Weather on mobile